createdAt,value
2023-03-30T00:00:21.509Z,98598.38
2023-03-30T00:02:51.170Z,98595.74
2023-03-30T00:05:18.557Z,98592.39
2023-03-30T00:07:46.041Z,98592.34
2023-03-30T00:10:18.205Z,98591.13
2023-03-30T00:12:47.288Z,98594.73
2023-03-30T00:15:17.542Z,98593.20
2023-03-30T00:17:45.565Z,98590.86
2023-03-30T00:20:14.252Z,98593.80
2023-03-30T00:22:42.663Z,98589.46
2023-03-30T00:25:12.436Z,98590.90
2023-03-30T00:27:39.987Z,98587.03
2023-03-30T00:30:11.083Z,98583.27
2023-03-30T00:32:38.259Z,98586.44
2023-03-30T00:35:06.094Z,98582.09
2023-03-30T00:37:33.339Z,98581.11
2023-03-30T00:40:00.165Z,98580.01
2023-03-30T00:42:26.953Z,98578.63
2023-03-30T00:45:16.043Z,98573.79
2023-03-30T00:47:49.554Z,98569.55
2023-03-30T00:50:22.022Z,98568.80
2023-03-30T00:52:52.772Z,98563.02
2023-03-30T00:55:22.849Z,98562.34
2023-03-30T00:57:52.611Z,98561.80
2023-03-30T01:00:20.242Z,98561.33
2023-03-30T01:02:56.113Z,98559.36
2023-03-30T01:05:24.410Z,98556.46
2023-03-30T01:07:52.335Z,98557.07
2023-03-30T01:10:19.689Z,98556.86
2023-03-30T01:12:47.554Z,98550.77
2023-03-30T01:15:16.368Z,98550.52
2023-03-30T01:18:07.106Z,98549.33
2023-03-30T01:20:50.164Z,98548.48
2023-03-30T01:23:40.078Z,98541.66
2023-03-30T01:26:11.583Z,98539.04
2023-03-30T01:28:39.431Z,98538.69
2023-03-30T01:31:25.786Z,98537.67
2023-03-30T01:33:54.438Z,98534.48
2023-03-30T01:36:38.611Z,98529.73
2023-03-30T01:39:16.878Z,98527.70
2023-03-30T01:42:09.393Z,98523.79
2023-03-30T01:44:40.844Z,98524.78
2023-03-30T01:47:23.640Z,98520.55
2023-03-30T01:49:57.364Z,98517.20
2023-03-30T01:52:38.602Z,98514.89
2023-03-30T01:55:33.464Z,98516.16
2023-03-30T01:58:03.449Z,98513.41
2023-03-30T02:00:31.070Z,98508.19
2023-03-30T02:03:09.025Z,98509.10
2023-03-30T02:05:36.402Z,98510.84
2023-03-30T02:08:10.155Z,98513.31
2023-03-30T02:10:39.028Z,98513.80
2023-03-30T02:13:08.520Z,98512.23
2023-03-30T02:15:41.141Z,98510.36
2023-03-30T02:18:08.314Z,98508.47
2023-03-30T02:20:35.796Z,98507.80
2023-03-30T02:23:06.165Z,98506.64
2023-03-30T02:25:38.530Z,98504.92
2023-03-30T02:28:07.791Z,98503.03
2023-03-30T02:30:38.368Z,98503.05
2023-03-30T02:33:06.239Z,98503.79
2023-03-30T02:35:42.159Z,98503.92
2023-03-30T02:38:39.532Z,98500.62
2023-03-30T02:41:12.801Z,98502.02
2023-03-30T02:43:56.611Z,98497.91
2023-03-30T02:46:42.186Z,98496.23
2023-03-30T02:49:12.342Z,98493.45
2023-03-30T02:51:52.540Z,98494.39
2023-03-30T02:54:25.905Z,98491.69
2023-03-30T02:57:14.744Z,98490.19
2023-03-30T02:59:45.148Z,98488.16
2023-03-30T03:02:20.357Z,98490.08
2023-03-30T03:04:52.980Z,98481.34
2023-03-30T03:07:32.301Z,98482.89
2023-03-30T03:10:00.110Z,98483.84
2023-03-30T03:12:28.912Z,98478.10
2023-03-30T03:14:55.738Z,98477.01
2023-03-30T03:17:22.627Z,98470.50
2023-03-30T03:19:49.715Z,98470.75
2023-03-30T03:22:17.772Z,98464.56
2023-03-30T03:24:45.378Z,98466.41
2023-03-30T03:27:15.801Z,98465.66
2023-03-30T03:29:55.424Z,98459.91
2023-03-30T03:32:22.304Z,98456.38
2023-03-30T03:34:50.056Z,98457.91
2023-03-30T03:37:17.610Z,98450.23
2023-03-30T03:39:44.665Z,98441.94
2023-03-30T03:42:12.669Z,98435.11
2023-03-30T03:44:48.475Z,98423.59
2023-03-30T03:47:16.927Z,98418.57
2023-03-30T03:49:44.571Z,98414.52
2023-03-30T03:52:11.932Z,98412.86
2023-03-30T03:54:38.693Z,98410.48
2023-03-30T03:57:06.521Z,98413.45
2023-03-30T03:59:33.605Z,98413.34
2023-03-30T04:02:00.443Z,98412.05
2023-03-30T04:04:28.798Z,98417.94
2023-03-30T04:06:56.376Z,98420.41
2023-03-30T04:09:24.825Z,98420.42
2023-03-30T04:12:06.915Z,98416.48
2023-03-30T04:14:41.135Z,98411.20
2023-03-30T04:17:23.999Z,98414.95
2023-03-30T04:20:11.926Z,98417.50
2023-03-30T04:22:54.820Z,98416.45
2023-03-30T04:25:25.888Z,98410.17
2023-03-30T04:28:11.799Z,98409.36
2023-03-30T04:30:59.867Z,98404.77
2023-03-30T04:33:52.040Z,98400.42
2023-03-30T04:36:43.467Z,98401.84
2023-03-30T04:39:23.997Z,98401.98
2023-03-30T04:42:06.309Z,98391.98
2023-03-30T04:44:42.387Z,98393.94
2023-03-30T04:47:26.390Z,98391.13
2023-03-30T04:50:11.709Z,98387.08
2023-03-30T04:52:38.665Z,98387.00
2023-03-30T04:55:20.811Z,98381.02
2023-03-30T04:58:03.056Z,98376.24
2023-03-30T05:00:45.281Z,98373.38
2023-03-30T05:03:22.402Z,98370.32
2023-03-30T05:06:00.030Z,98369.04
2023-03-30T05:08:41.876Z,98368.02
2023-03-30T05:11:16.262Z,98362.65
2023-03-30T05:13:52.288Z,98357.66
2023-03-30T05:16:27.439Z,98352.71
2023-03-30T05:19:09.747Z,98354.90
2023-03-30T05:21:48.645Z,98356.89
2023-03-30T05:24:26.908Z,98347.58
2023-03-30T05:27:13.354Z,98347.35
2023-03-30T05:29:55.731Z,98343.97
2023-03-30T05:32:25.946Z,98339.05
2023-03-30T05:35:06.756Z,98336.33
2023-03-30T05:37:55.310Z,98338.86
2023-03-30T05:40:28.919Z,98337.23
2023-03-30T05:43:11.279Z,98338.06
2023-03-30T05:45:51.281Z,98337.23
2023-03-30T05:48:33.577Z,98336.84
2023-03-30T05:51:09.182Z,98342.23
2023-03-30T05:53:52.628Z,98341.52
2023-03-30T05:56:34.865Z,98340.62
2023-03-30T05:59:19.324Z,98332.20
2023-03-30T06:02:01.670Z,98328.06
2023-03-30T06:04:28.676Z,98316.61
2023-03-30T06:06:56.095Z,98310.77
2023-03-30T06:09:24.150Z,98311.57
2023-03-30T06:11:51.973Z,98310.88
2023-03-30T06:14:22.372Z,98307.15
2023-03-30T06:17:12.405Z,98308.02
2023-03-30T06:19:39.384Z,98306.88
2023-03-30T06:22:06.299Z,98310.41
2023-03-30T06:24:40.040Z,98313.91
2023-03-30T06:27:08.473Z,98308.52
2023-03-30T06:29:36.845Z,98307.15
2023-03-30T06:32:03.928Z,98307.73
2023-03-30T06:34:48.855Z,98311.66
2023-03-30T06:37:16.974Z,98307.23
2023-03-30T06:39:45.388Z,98306.73
2023-03-30T06:42:12.251Z,98312.81
2023-03-30T06:44:50.640Z,98305.08
2023-03-30T06:47:20.028Z,98309.41
2023-03-30T06:49:46.875Z,98302.55
2023-03-30T06:52:29.548Z,98301.91
2023-03-30T06:57:23.303Z,98297.98
2023-03-30T06:59:50.416Z,98296.52
2023-03-30T07:02:21.158Z,98290.30
2023-03-30T07:05:03.895Z,98288.81
2023-03-30T07:07:37.300Z,98285.44
2023-03-30T07:10:10.467Z,98281.29
2023-03-30T07:12:38.217Z,98279.52
2023-03-30T07:15:08.127Z,98285.08
2023-03-30T07:17:36.291Z,98285.27
2023-03-30T07:20:06.005Z,98283.28
2023-03-30T07:22:33.817Z,98287.77
2023-03-30T07:25:00.680Z,98281.87
2023-03-30T07:27:28.219Z,98288.37
2023-03-30T07:30:00.545Z,98286.78
2023-03-30T07:32:32.091Z,98269.58
2023-03-30T07:34:59.263Z,98263.54
2023-03-30T07:37:26.478Z,98258.61
2023-03-30T07:39:53.707Z,98256.82
2023-03-30T07:42:20.582Z,98254.26
2023-03-30T07:44:47.362Z,98258.48
2023-03-30T07:47:16.738Z,98260.72
2023-03-30T07:49:44.232Z,98261.80
2023-03-30T07:52:12.702Z,98259.71
2023-03-30T07:54:46.755Z,98254.42
2023-03-30T07:57:19.170Z,98256.57
2023-03-30T07:59:45.942Z,98251.10
2023-03-30T08:02:22.887Z,98241.70
2023-03-30T08:04:52.956Z,98245.42
2023-03-30T08:07:28.188Z,98239.15
2023-03-30T08:10:01.442Z,98240.61
2023-03-30T08:12:28.292Z,98235.97
2023-03-30T08:14:55.837Z,98239.83
2023-03-30T08:17:22.980Z,98234.46
2023-03-30T08:19:49.842Z,98238.65
2023-03-30T08:22:16.735Z,98237.52
2023-03-30T08:24:43.518Z,98238.71
2023-03-30T08:27:10.315Z,98236.20
2023-03-30T08:29:37.136Z,98238.17
2023-03-30T08:32:04.067Z,98234.27
2023-03-30T08:34:31.062Z,98226.82
2023-03-30T08:36:58.313Z,98232.14
2023-03-30T08:39:25.878Z,98226.27
2023-03-30T08:42:11.900Z,98223.73
2023-03-30T08:44:44.111Z,98215.27
2023-03-30T08:47:18.253Z,98208.61
2023-03-30T08:49:58.397Z,98211.48
2023-03-30T08:52:27.490Z,98213.59
2023-03-30T08:54:55.138Z,98215.74
2023-03-30T08:57:38.257Z,98214.45
2023-03-30T09:00:21.197Z,98212.16
2023-03-30T09:02:53.424Z,98200.41
2023-03-30T09:05:32.243Z,98197.02
2023-03-30T09:08:15.462Z,98185.86
2023-03-30T09:10:47.249Z,98181.19
2023-03-30T09:13:18.906Z,98175.21
2023-03-30T09:16:06.962Z,98173.42
2023-03-30T09:18:38.050Z,98168.24
2023-03-30T09:21:07.019Z,98164.85
2023-03-30T09:23:36.079Z,98156.27
2023-03-30T09:26:05.286Z,98150.48
2023-03-30T09:28:48.334Z,98147.94
2023-03-30T09:31:25.042Z,98153.86
2023-03-30T09:33:58.171Z,98152.59
2023-03-30T09:36:42.889Z,98153.25
2023-03-30T09:39:17.250Z,98153.09
2023-03-30T09:42:15.195Z,98148.72
2023-03-30T09:44:47.337Z,98135.52
2023-03-30T09:47:21.564Z,98129.80
2023-03-30T09:49:48.522Z,98121.02
2023-03-30T09:52:22.402Z,98108.03
2023-03-30T09:54:49.115Z,98111.55
2023-03-30T09:57:32.898Z,98109.78
2023-03-30T10:00:01.401Z,98099.97
2023-03-30T10:02:31.380Z,98097.37
2023-03-30T10:05:02.575Z,98093.45
2023-03-30T10:07:33.383Z,98096.40
2023-03-30T10:10:13.495Z,98084.52
2023-03-30T10:12:41.001Z,98088.77
2023-03-30T10:15:16.488Z,98095.05
2023-03-30T10:17:46.704Z,98089.64
2023-03-30T10:20:21.344Z,98089.56
2023-03-30T10:22:53.936Z,98087.92
2023-03-30T10:25:27.429Z,98088.52
2023-03-30T10:28:01.391Z,98082.20
2023-03-30T10:30:29.621Z,98073.17
2023-03-30T10:32:59.736Z,98070.66
2023-03-30T10:35:32.895Z,98066.51
2023-03-30T10:38:02.363Z,98061.64
2023-03-30T10:40:39.254Z,98054.48
2023-03-30T10:43:12.833Z,98056.51
2023-03-30T10:45:44.414Z,98048.03
2023-03-30T10:48:34.870Z,98042.44
2023-03-30T10:51:11.536Z,98032.70
2023-03-30T10:53:47.055Z,98031.36
2023-03-30T10:56:32.996Z,98037.73
2023-03-30T10:59:14.938Z,98030.65
2023-03-30T11:01:51.220Z,98022.49
2023-03-30T11:04:43.935Z,98023.42
2023-03-30T11:07:22.287Z,98006.59
2023-03-30T11:09:54.872Z,98000.17
2023-03-30T11:12:27.225Z,97990.64
2023-03-30T11:15:01.785Z,97992.47
2023-03-30T11:17:34.882Z,97994.01
2023-03-30T11:20:19.120Z,97996.28
2023-03-30T11:22:47.433Z,97985.30
2023-03-30T11:25:26.037Z,97982.77
2023-03-30T11:28:00.181Z,97992.20
2023-03-30T11:30:31.707Z,97995.41
2023-03-30T11:33:11.026Z,97992.10
2023-03-30T11:35:53.070Z,97994.70
2023-03-30T11:38:27.433Z,97993.54
2023-03-30T11:40:58.423Z,97984.30
2023-03-30T11:43:29.844Z,97978.80
2023-03-30T11:46:04.461Z,97980.09
2023-03-30T11:48:33.572Z,97973.85
2023-03-30T11:51:16.022Z,97968.98
2023-03-30T11:53:42.777Z,97973.46
2023-03-30T11:56:20.906Z,97965.19
2023-03-30T11:59:04.882Z,97954.17
2023-03-30T12:01:46.382Z,97952.08
2023-03-30T12:04:16.944Z,97950.20
2023-03-30T12:06:54.754Z,97944.65
2023-03-30T12:09:37.217Z,97942.54
2023-03-30T12:12:12.026Z,97937.05
2023-03-30T12:14:57.831Z,97936.24
2023-03-30T12:17:49.376Z,97936.70
2023-03-30T12:20:34.976Z,97935.00
2023-03-30T12:23:11.370Z,97932.86
2023-03-30T12:25:47.045Z,97933.84
2023-03-30T12:28:15.744Z,97935.52
2023-03-30T12:30:55.588Z,97941.55
2023-03-30T12:33:36.015Z,97941.85
2023-03-30T12:36:23.117Z,97940.69
2023-03-30T12:38:50.265Z,97944.88
2023-03-30T12:41:20.756Z,97942.62
2023-03-30T12:44:01.308Z,97937.08
2023-03-30T12:46:42.215Z,97934.84
2023-03-30T12:49:10.188Z,97932.52
2023-03-30T12:52:09.820Z,97929.61
2023-03-30T12:54:59.225Z,97928.64
2023-03-30T12:57:36.308Z,97935.02
2023-03-30T13:00:28.648Z,97932.27
2023-03-30T13:03:19.723Z,97927.45
2023-03-30T13:05:51.685Z,97924.07
2023-03-30T13:08:19.466Z,97927.70
2023-03-30T13:10:46.267Z,97930.61
2023-03-30T13:13:23.089Z,97932.17
2023-03-30T13:15:54.859Z,97932.86
2023-03-30T13:18:51.762Z,97933.14
2023-03-30T13:21:21.822Z,97929.42
2023-03-30T13:24:22.717Z,97929.47
2023-03-30T13:26:49.949Z,97932.07
2023-03-30T13:29:17.979Z,97938.86
2023-03-30T13:31:53.449Z,97940.70
2023-03-30T13:34:22.154Z,97937.84
2023-03-30T13:37:19.832Z,97935.40
2023-03-30T13:39:57.992Z,97935.84
2023-03-30T13:42:40.017Z,97937.16
2023-03-30T13:45:23.161Z,97942.65
2023-03-30T13:48:19.785Z,97942.86
2023-03-30T13:50:53.529Z,97937.08
2023-03-30T13:53:20.729Z,97940.52
2023-03-30T13:55:49.538Z,97941.18
2023-03-30T13:58:19.752Z,97935.74
2023-03-30T14:00:50.474Z,97940.53
2023-03-30T14:03:27.225Z,97945.05
2023-03-30T14:05:58.231Z,97940.75
2023-03-30T14:08:24.983Z,97942.80
2023-03-30T14:10:52.623Z,97935.03
2023-03-30T14:13:19.530Z,97937.73
2023-03-30T14:15:46.301Z,97938.61
2023-03-30T14:18:20.861Z,97945.90
2023-03-30T14:20:51.766Z,97940.25
2023-03-30T14:23:36.583Z,97946.38
2023-03-30T14:26:12.375Z,97941.24
2023-03-30T14:28:42.495Z,97945.43
2023-03-30T14:31:17.579Z,97945.81
2023-03-30T14:33:44.865Z,97947.64
2023-03-30T14:36:16.704Z,97934.91
2023-03-30T14:38:53.761Z,97946.09
2023-03-30T14:41:24.066Z,97941.48
2023-03-30T14:44:02.041Z,97938.84
2023-03-30T14:46:42.698Z,97949.41
2023-03-30T14:49:19.021Z,97947.20
2023-03-30T14:51:48.420Z,97942.05
2023-03-30T14:54:20.375Z,97941.77
2023-03-30T14:56:56.668Z,97936.13
2023-03-30T14:59:30.973Z,97933.98
2023-03-30T15:01:59.327Z,97935.95
2023-03-30T15:04:31.973Z,97923.38
2023-03-30T15:06:59.548Z,97917.33
2023-03-30T15:09:26.808Z,97925.04
2023-03-30T15:11:53.620Z,97924.23
2023-03-30T15:14:22.726Z,97922.88
2023-03-30T15:16:53.770Z,97916.18
2023-03-30T15:19:23.931Z,97914.75
2023-03-30T15:21:53.436Z,97913.89
2023-03-30T15:24:26.138Z,97918.27
2023-03-30T15:26:57.024Z,97913.70
2023-03-30T15:29:25.561Z,97912.95
2023-03-30T15:32:08.186Z,97910.52
2023-03-30T15:34:35.047Z,97911.04
2023-03-30T15:37:01.815Z,97908.52
2023-03-30T15:39:34.641Z,97907.00
2023-03-30T15:42:04.707Z,97906.02
2023-03-30T15:44:38.196Z,97900.27
2023-03-30T15:47:14.235Z,97897.79
2023-03-30T15:49:47.712Z,97897.25
2023-03-30T15:52:19.263Z,97891.02
2023-03-30T15:54:52.907Z,97892.73
2023-03-30T15:57:25.091Z,97880.73
2023-03-30T15:59:56.453Z,97885.52
2023-03-30T16:02:38.199Z,97885.38
2023-03-30T16:05:07.912Z,97880.73
2023-03-30T16:07:36.297Z,97880.29
2023-03-30T16:10:03.584Z,97879.34
2023-03-30T16:12:31.502Z,97874.63
2023-03-30T16:14:58.717Z,97867.39
2023-03-30T16:17:25.818Z,97865.08
2023-03-30T16:19:52.830Z,97864.83
2023-03-30T16:22:19.638Z,97866.56
2023-03-30T16:24:48.254Z,97863.80
2023-03-30T16:27:15.725Z,97856.08
2023-03-30T16:29:42.737Z,97855.54
2023-03-30T16:32:09.741Z,97854.23
2023-03-30T16:34:36.964Z,97848.80
2023-03-30T16:37:03.766Z,97850.66
2023-03-30T16:39:30.698Z,97846.50
2023-03-30T16:41:57.872Z,97846.05
2023-03-30T16:44:25.518Z,97839.03
2023-03-30T16:46:53.100Z,97838.17
2023-03-30T16:49:23.486Z,97840.44
2023-03-30T16:51:51.690Z,97835.02
2023-03-30T16:54:30.229Z,97832.46
2023-03-30T16:56:58.711Z,97827.63
2023-03-30T16:59:29.249Z,97823.76
2023-03-30T17:02:14.849Z,97819.57
2023-03-30T17:04:45.517Z,97814.91
2023-03-30T17:07:12.275Z,97815.77
2023-03-30T17:09:39.027Z,97818.16
2023-03-30T17:12:06.311Z,97814.30
2023-03-30T17:14:33.030Z,97811.41
2023-03-30T17:16:59.849Z,97800.45
2023-03-30T17:19:28.071Z,97790.60
2023-03-30T17:21:54.788Z,97789.92
2023-03-30T17:24:21.620Z,97792.05
2023-03-30T17:26:48.391Z,97786.88
2023-03-30T17:29:15.232Z,97787.86
2023-03-30T17:31:45.936Z,97788.09
2023-03-30T17:34:13.493Z,97790.77
2023-03-30T17:36:40.240Z,97802.23
2023-03-30T17:39:07.312Z,97806.43
2023-03-30T17:41:34.357Z,97812.35
2023-03-30T17:44:01.158Z,97815.60
2023-03-30T17:46:28.380Z,97813.61
2023-03-30T17:48:55.335Z,97813.60
2023-03-30T17:51:22.199Z,97820.05
2023-03-30T17:53:49.133Z,97822.67
2023-03-30T17:56:16.020Z,97818.03
2023-03-30T17:58:42.879Z,97832.58
2023-03-30T18:01:12.498Z,97840.05
2023-03-30T18:03:39.921Z,97835.23
2023-03-30T18:06:07.222Z,97835.41
2023-03-30T18:08:34.194Z,97837.19
2023-03-30T18:11:01.860Z,97828.42
2023-03-30T18:13:30.605Z,97830.19
2023-03-30T18:15:59.431Z,97831.55
2023-03-30T18:18:29.606Z,97833.32
2023-03-30T18:20:59.488Z,97834.14
2023-03-30T18:23:26.385Z,97837.62
2023-03-30T18:25:53.242Z,97832.26
2023-03-30T18:28:25.766Z,97835.74
2023-03-30T18:30:55.488Z,97835.73
2023-03-30T18:33:22.469Z,97835.72
2023-03-30T18:35:51.566Z,97840.90
2023-03-30T18:38:20.996Z,97837.83
2023-03-30T18:40:50.602Z,97834.44
2023-03-30T18:43:17.720Z,97834.56
2023-03-30T18:45:46.570Z,97832.09
2023-03-30T18:48:16.140Z,97832.05
2023-03-30T18:50:45.226Z,97828.45
2023-03-30T18:53:14.766Z,97829.18
2023-03-30T18:55:44.422Z,97832.83
2023-03-30T18:58:15.202Z,97829.95
2023-03-30T19:00:42.638Z,97833.20
2023-03-30T19:03:09.653Z,97829.79
2023-03-30T19:05:38.580Z,97832.00
2023-03-30T19:08:05.367Z,97826.55
2023-03-30T19:10:36.205Z,97821.92
2023-03-30T19:13:03.462Z,97825.48
2023-03-30T19:15:33.800Z,97827.26
2023-03-30T19:18:03.048Z,97822.55
2023-03-30T19:20:32.000Z,97819.79
2023-03-30T19:22:59.369Z,97822.19
2023-03-30T19:25:27.863Z,97821.23
2023-03-30T19:28:03.397Z,97819.27
2023-03-30T19:30:33.025Z,97822.55
2023-03-30T19:33:04.009Z,97825.80
2023-03-30T19:35:31.540Z,97829.37
2023-03-30T19:37:58.763Z,97835.03
2023-03-30T19:40:25.712Z,97831.70
2023-03-30T19:42:53.250Z,97826.29
2023-03-30T19:45:22.993Z,97822.77
2023-03-30T19:47:50.778Z,97822.95
2023-03-30T19:50:19.525Z,97820.64
2023-03-30T19:52:50.141Z,97817.88
2023-03-30T19:55:19.719Z,97812.91
2023-03-30T19:57:46.971Z,97808.80
2023-03-30T20:00:15.996Z,97803.79
2023-03-30T20:02:45.980Z,97803.31
2023-03-30T20:05:13.339Z,97800.73
2023-03-30T20:07:41.272Z,97800.40
2023-03-30T20:10:11.240Z,97797.23
2023-03-30T20:12:38.738Z,97793.30
2023-03-30T20:15:09.761Z,97786.04
2023-03-30T20:17:38.265Z,97780.61
2023-03-30T20:20:08.797Z,97783.84
2023-03-30T20:22:37.754Z,97784.61
2023-03-30T20:25:07.712Z,97781.03
2023-03-30T20:27:35.951Z,97781.65
2023-03-30T20:31:02.795Z,97772.77
2023-03-30T20:34:49.902Z,97775.75
2023-03-30T20:37:25.864Z,97779.13
2023-03-30T20:39:52.913Z,97776.42
2023-03-30T20:42:26.448Z,97772.81
2023-03-30T20:44:53.673Z,97775.70
2023-03-30T20:47:26.171Z,97768.62
2023-03-30T20:49:54.034Z,97763.13
2023-03-30T20:52:22.370Z,97768.20
2023-03-30T20:54:49.597Z,97767.45
2023-03-30T20:57:16.617Z,97767.24
2023-03-30T20:59:43.589Z,97764.59
2023-03-30T21:02:11.476Z,97759.85
2023-03-30T21:04:38.374Z,97758.31
2023-03-30T21:07:05.187Z,97756.25
2023-03-30T21:09:34.078Z,97754.73
2023-03-30T21:12:00.913Z,97754.40
2023-03-30T21:14:27.826Z,97752.80
2023-03-30T21:16:54.675Z,97743.39
2023-03-30T21:19:21.504Z,97739.57
2023-03-30T21:21:48.241Z,97736.42
2023-03-30T21:24:16.929Z,97745.70
2023-03-30T21:26:43.733Z,97749.34
2023-03-30T21:29:10.573Z,97752.21
2023-03-30T21:31:37.354Z,97750.73
2023-03-30T21:34:04.286Z,97747.74
2023-03-30T21:36:31.196Z,97741.55
2023-03-30T21:38:59.451Z,97747.98
2023-03-30T21:41:28.908Z,97748.49
2023-03-30T21:43:55.801Z,97748.70
2023-03-30T21:46:24.786Z,97749.92
2023-03-30T21:48:53.990Z,97748.23
2023-03-30T21:51:24.257Z,97747.50
2023-03-30T21:53:52.446Z,97742.41
2023-03-30T21:56:22.471Z,97741.89
2023-03-30T21:58:50.053Z,97737.95
2023-03-30T22:01:18.459Z,97735.08
2023-03-30T22:03:46.253Z,97744.52
2023-03-30T22:06:14.494Z,97734.55
2023-03-30T22:08:41.676Z,97730.48
2023-03-30T22:11:13.426Z,97727.23
2023-03-30T22:13:40.400Z,97724.04
2023-03-30T22:16:12.694Z,97724.63
2023-03-30T22:18:41.175Z,97720.81
2023-03-30T22:21:11.439Z,97715.92
2023-03-30T22:23:38.190Z,97718.55
2023-03-30T22:26:06.698Z,97722.17
2023-03-30T22:28:34.651Z,97729.19
2023-03-30T22:31:01.903Z,97736.54
2023-03-30T22:33:29.232Z,97741.42
2023-03-30T22:35:57.621Z,97748.00
2023-03-30T22:38:24.461Z,97745.59
2023-03-30T22:40:51.284Z,97750.95
2023-03-30T22:43:18.053Z,97751.85
2023-03-30T22:45:44.974Z,97745.34
2023-03-30T22:48:11.747Z,97747.85
2023-03-30T22:50:38.612Z,97747.64
2023-03-30T22:53:05.448Z,97738.48
2023-03-30T22:55:32.291Z,97732.15
2023-03-30T22:57:59.232Z,97731.06
2023-03-30T23:00:26.053Z,97730.36
2023-03-30T23:02:53.060Z,97731.85
2023-03-30T23:05:21.422Z,97735.36
2023-03-30T23:07:49.540Z,97740.45
2023-03-30T23:10:20.234Z,97740.90
2023-03-30T23:12:46.992Z,97741.77
2023-03-30T23:15:14.752Z,97744.73
2023-03-30T23:17:43.279Z,97738.02
2023-03-30T23:20:10.646Z,97732.14
2023-03-30T23:22:38.559Z,97735.42
2023-03-30T23:25:06.749Z,97726.77
2023-03-30T23:27:34.966Z,97728.04
2023-03-30T23:30:01.792Z,97733.83
2023-03-30T23:32:28.794Z,97733.86
2023-03-30T23:34:55.642Z,97734.38
2023-03-30T23:37:23.344Z,97729.39
2023-03-30T23:39:50.167Z,97725.30
2023-03-30T23:42:18.215Z,97728.38
2023-03-30T23:44:45.377Z,97733.08
2023-03-30T23:47:12.331Z,97737.26
2023-03-30T23:49:39.053Z,97746.10
2023-03-30T23:52:05.979Z,97744.10
2023-03-30T23:54:37.404Z,97756.38
2023-03-30T23:57:07.367Z,97754.83
2023-03-30T23:59:35.410Z,97751.63
